Time;durP1;ratioP1;P1;durP2;ratioP2;P2;SDS_P1;SDS_P2;PMS_P1;PMS_P2;Temp;Humidity;BMP_temperature;BMP_pressure;BME280_temperature;BME280_humidity;BME280_pressure;Samples;Min_cycle;Max_cycle;Signal;HPM_P1;HPM_P2
2023/08/09 00:00:11;;;;;;;;;0.00;0.00;;;;;26.71;40.28;101346.94;5035397;28;45268;-72
2023/08/09 00:02:36;;;;;;;;;1.00;1.00;;;;;27.10;41.08;101409.69;5035549;28;45339;-71
2023/08/09 00:05:02;;;;;;;;;0.33;0.33;;;;;27.02;40.87;101400.00;5035416;28;45419;-71
2023/08/09 00:07:28;;;;;;;;;1.00;1.00;;;;;27.15;40.55;101417.94;5035007;28;48090;-71
2023/08/09 00:09:53;;;;;;;;;1.33;1.33;;;;;27.19;40.84;101424.53;5034781;27;45359;-71
2023/08/09 00:12:18;;;;;;;;;1.00;1.00;;;;;27.16;40.64;101423.09;5035332;28;45326;-72
2023/08/09 00:14:44;;;;;;;;;0.00;0.00;;;;;26.98;41.00;101396.09;5035147;28;45559;-71
2023/08/09 00:17:09;;;;;;;;;0.00;0.00;;;;;27.17;40.44;101435.41;5035078;28;47082;-72
2023/08/09 00:19:35;;;;;;;;;1.00;1.00;;;;;27.15;40.61;101426.78;5034846;28;45460;-72
2023/08/09 00:22:00;;;;;;;;;0.00;0.00;;;;;27.15;40.42;101426.78;5035413;27;45662;-72
2023/08/09 00:24:26;;;;;;;;;0.00;0.00;;;;;27.20;40.62;101439.53;5034953;28;45316;-72
2023/08/09 00:26:51;;;;;;;;;1.00;1.00;;;;;27.07;40.96;101414.41;5034973;28;47093;-72
2023/08/09 00:29:16;;;;;;;;;0.67;0.67;;;;;27.03;41.00;101409.66;5034862;28;45937;-72
2023/08/09 00:31:41;;;;;;;;;0.00;0.00;;;;;27.11;40.83;101420.19;5035100;28;45372;-72
2023/08/09 00:34:07;;;;;;;;;1.00;1.00;;;;;26.95;40.80;101398.16;5034980;28;45477;-72
2023/08/09 00:36:32;;;;;;;;;1.00;1.00;;;;;27.19;40.48;101432.56;5034914;28;45480;-72
2023/08/09 00:38:57;;;;;;;;;1.00;1.00;;;;;27.01;40.95;101406.38;5034472;28;45431;-72
2023/08/09 00:41:23;;;;;;;;;1.33;1.33;;;;;27.18;41.16;101437.06;5034783;28;45441;-72
2023/08/09 00:43:48;;;;;;;;;0.33;0.00;;;;;27.18;41.17;101431.72;5034943;28;45554;-72
2023/08/09 00:46:13;;;;;;;;;0.00;0.00;;;;;27.20;40.53;101441.38;5034737;28;46076;-72
2023/08/09 00:48:39;;;;;;;;;1.33;1.33;;;;;27.20;40.72;101441.38;5034716;28;45349;-72
2023/08/09 00:51:04;;;;;;;;;0.33;0.33;;;;;27.19;40.59;101440.56;5034990;28;45375;-72
2023/08/09 00:53:31;;;;;;;;;0.00;0.00;;;;;27.19;40.75;101440.56;5034400;28;45342;-72
2023/08/09 00:55:56;;;;;;;;;1.00;1.00;;;;;27.10;40.68;101420.38;5034635;28;47127;-72
2023/08/09 00:58:23;;;;;;;;;0.67;0.67;;;;;27.10;40.90;101433.72;5033856;28;45528;-72
2023/08/09 01:00:49;;;;;;;;;0.00;0.00;;;;;27.18;40.61;101442.41;5034667;28;45440;-72
2023/08/09 01:03:15;;;;;;;;;0.33;0.33;;;;;27.10;41.00;101428.38;5104019;27;45501;-72
2023/08/09 01:06:14;;;;;;;;;1.00;1.00;;;;;27.20;41.09;101446.72;5034474;28;45335;-72
2023/08/09 01:08:49;;;;;;;;;0.00;0.00;;;;;26.97;41.23;101413.97;5034151;27;45283;-72
2023/08/09 01:11:48;;;;;;;;;0.00;0.00;;;;;27.19;40.73;101451.25;5034456;28;45221;-72
2023/08/09 01:14:15;;;;;;;;;0.00;0.00;;;;;26.91;40.96;101409.41;5034448;28;45498;-73
2023/08/09 01:16:42;;;;;;;;;1.00;0.67;;;;;27.14;41.16;101448.38;5034389;28;45343;-72
2023/08/09 01:19:19;;;;;;;;;0.33;0.33;;;;;27.17;40.65;101447.94;5034126;28;45429;-72
2023/08/09 01:21:44;;;;;;;;;0.00;0.00;;;;;27.16;41.15;101449.81;5034135;28;45358;-72
2023/08/09 01:24:12;;;;;;;;;0.33;0.33;;;;;27.16;41.15;101457.00;5034288;28;45259;-72
2023/08/09 01:26:40;;;;;;;;;0.00;0.00;;;;;27.14;40.91;101449.16;5034382;27;46541;-71
2023/08/09 01:29:06;;;;;;;;;0.00;0.00;;;;;27.13;41.05;101447.53;5034124;28;45375;-72
2023/08/09 01:31:31;;;;;;;;;0.33;0.00;;;;;27.17;41.09;101453.28;5034437;28;45368;-72
2023/08/09 01:33:57;;;;;;;;;0.33;0.33;;;;;27.13;40.95;101454.72;5016424;28;45372;-72
2023/08/09 01:36:28;;;;;;;;;0.33;0.33;;;;;27.14;40.63;101451.84;5033672;28;46118;-73
2023/08/09 01:39:06;;;;;;;;;0.33;0.33;;;;;27.07;40.79;101432.28;5034180;28;45700;-72
2023/08/09 01:41:32;;;;;;;;;0.00;0.00;;;;;27.09;41.26;101443.56;5017682;28;45472;-72
2023/08/09 01:43:58;;;;;;;;;0.00;0.00;;;;;27.12;40.76;101439.69;5034116;28;45519;-72
2023/08/09 01:46:25;;;;;;;;;0.00;0.00;;;;;27.03;41.09;101426.53;5033943;28;46028;-72
2023/08/09 01:48:50;;;;;;;;;1.00;0.00;;;;;26.83;40.75;101400.56;5033782;28;45228;-73
2023/08/09 01:51:16;;;;;;;;;0.67;0.67;;;;;27.14;41.30;101443.81;5033630;28;45300;-73
2023/08/09 01:53:41;;;;;;;;;0.00;0.00;;;;;27.12;41.34;101447.69;5033956;28;45380;-72
2023/08/09 01:56:07;;;;;;;;;0.00;0.00;;;;;27.13;41.24;101444.03;5016075;28;46410;-72
2023/08/09 01:58:32;;;;;;;;;1.00;1.00;;;;;27.13;40.75;101442.19;5033779;28;45276;-72
2023/08/09 02:00:58;;;;;;;;;1.00;1.00;;;;;27.02;41.12;101437.38;5034071;28;45339;-72
2023/08/09 02:03:25;;;;;;;;;0.00;0.00;;;;;27.14;40.65;101438.47;5034032;28;45363;-73
2023/08/09 02:05:51;;;;;;;;;0.00;0.00;;;;;27.14;40.59;101432.34;5033397;28;46236;-72
2023/08/09 02:08:16;;;;;;;;;1.00;1.00;;;;;26.90;40.72;101402.44;5033481;28;45465;-72
2023/08/09 02:10:42;;;;;;;;;0.50;0.00;;;;;27.13;41.35;101438.69;5032186;28;45302;-72
2023/08/09 02:13:07;;;;;;;;;1.00;1.00;;;;;27.12;40.74;101439.69;5033843;28;45304;-72
2023/08/09 02:15:32;;;;;;;;;1.00;1.00;;;;;26.34;40.67;101330.31;5033652;28;46156;-72
2023/08/09 02:17:58;;;;;;;;;0.67;0.67;;;;;27.09;41.21;101446.25;5033584;27;45408;-72
2023/08/09 02:20:23;;;;;;;;;1.00;0.00;;;;;27.14;41.17;101457.19;5033408;28;45476;-72
2023/08/09 02:22:49;;;;;;;;;0.00;0.00;;;;;27.13;41.43;101463.56;5033871;28;45323;-72
2023/08/09 02:25:14;;;;;;;;;1.00;1.00;;;;;27.05;41.30;101453.84;5033614;28;46282;-72
2023/08/09 02:27:40;;;;;;;;;0.67;0.67;;;;;27.13;40.53;101460.06;5033435;28;45482;-72
2023/08/09 02:30:06;;;;;;;;;0.67;0.67;;;;;26.77;41.31;101422.72;5033850;28;45340;-72
2023/08/09 02:32:34;;;;;;;;;0.00;0.00;;;;;27.04;40.96;101448.69;5033531;28;45362;-72
2023/08/09 02:35:00;;;;;;;;;1.00;0.00;;;;;27.10;40.84;101455.09;5033026;28;47136;-72
2023/08/09 02:37:26;;;;;;;;;0.00;0.00;;;;;27.07;40.85;101462.47;5033422;28;45288;-72
2023/08/09 02:39:52;;;;;;;;;1.00;1.00;;;;;26.98;41.67;101439.66;5033481;27;45599;-72
2023/08/09 02:42:18;;;;;;;;;1.00;1.00;;;;;27.07;41.44;101453.63;5033442;28;45488;-72
2023/08/09 02:44:44;;;;;;;;;0.33;0.00;;;;;27.04;41.18;101456.69;5033113;28;46701;-72
2023/08/09 02:47:09;;;;;;;;;0.00;0.00;;;;;27.12;41.27;101463.72;5033303;28;45301;-72
2023/08/09 02:49:35;;;;;;;;;0.00;0.00;;;;;27.12;41.24;101463.72;5033147;27;45499;-72
2023/08/09 02:52:00;;;;;;;;;0.00;0.00;;;;;27.11;41.01;101481.59;5033462;28;45332;-72
2023/08/09 02:54:25;;;;;;;;;0.00;0.00;;;;;27.07;41.07;101458.97;5033175;28;45416;-72
2023/08/09 02:56:51;;;;;;;;;2.00;0.67;;;;;26.90;41.02;101439.81;5033131;28;45341;-72
2023/08/09 02:59:16;;;;;;;;;0.00;0.00;;;;;27.10;41.39;101471.94;5033245;27;45440;-73
2023/08/09 03:01:44;;;;;;;;;0.00;0.00;;;;;27.03;40.82;101463.09;5032973;28;45431;-73
2023/08/09 03:04:10;;;;;;;;;0.33;0.33;;;;;27.13;40.76;101478.75;5032894;28;46367;-72
2023/08/09 03:06:35;;;;;;;;;0.00;0.00;;;;;26.82;40.79;101430.97;5032976;28;45340;-72
2023/08/09 03:09:02;;;;;;;;;0.00;0.00;;;;;26.85;40.90;101433.22;5014795;28;45426;-72
2023/08/09 03:11:27;;;;;;;;;2.00;0.33;;;;;27.07;40.74;101467.81;5033049;28;45530;-72
2023/08/09 03:13:54;;;;;;;;;0.00;0.00;;;;;27.04;40.69;101464.72;5032872;28;45553;-73
2023/08/09 03:16:20;;;;;;;;;0.00;0.00;;;;;27.12;41.05;101477.06;5032605;28;45344;-72
2023/08/09 03:18:46;;;;;;;;;0.00;0.00;;;;;27.13;41.41;101473.41;5032537;28;45386;-72
2023/08/09 03:21:12;;;;;;;;;0.00;0.00;;;;;26.76;41.11;101421.06;5032323;28;45282;-73
2023/08/09 03:23:38;;;;;;;;;0.00;0.00;;;;;26.99;40.83;101459.16;5032826;28;46400;-72
2023/08/09 03:26:04;;;;;;;;;0.00;0.00;;;;;27.12;41.35;101479.72;5032747;28;45312;-72
2023/08/09 03:28:29;;;;;;;;;0.00;0.00;;;;;27.12;41.43;101482.41;5032725;28;45388;-73
2023/08/09 03:30:55;;;;;;;;;1.00;0.00;;;;;27.12;40.99;101479.72;5032378;28;45460;-72
2023/08/09 03:33:20;;;;;;;;;0.00;0.00;;;;;27.12;41.05;101480.56;5032723;28;46024;-72
2023/08/09 03:35:46;;;;;;;;;0.00;0.00;;;;;27.10;41.43;101476.44;5032700;28;45325;-72
2023/08/09 03:38:11;;;;;;;;;0.00;0.00;;;;;26.81;41.54;101434.66;5032672;28;45273;-72
2023/08/09 03:40:36;;;;;;;;;0.00;0.00;;;;;27.12;41.28;101485.06;5015002;28;45380;-72
2023/08/09 03:43:02;;;;;;;;;0.00;0.00;;;;;27.09;41.02;101491.63;5032370;28;46187;-72
2023/08/09 03:45:27;;;;;;;;;0.00;0.00;;;;;27.10;41.49;101489.78;5032106;28;45495;-72
2023/08/09 03:47:54;;;;;;;;;0.00;0.00;;;;;27.01;40.98;101471.28;5032475;28;45317;-73
2023/08/09 03:50:20;;;;;;;;;1.00;0.00;;;;;27.09;40.88;101490.84;5032413;28;45468;-73
2023/08/09 03:52:45;;;;;;;;;0.00;0.00;;;;;27.12;41.48;101501.09;5032132;28;45948;-72
2023/08/09 03:55:11;;;;;;;;;1.67;0.00;;;;;26.79;40.94;101447.38;5032139;28;45201;-72
2023/08/09 03:57:37;;;;;;;;;0.00;0.00;;;;;27.07;41.01;101488.34;5032335;28;45388;-73
2023/08/09 04:00:08;;;;;;;;;0.00;0.00;;;;;27.07;41.59;101480.34;5031995;28;45299;-72
2023/08/09 04:02:34;;;;;;;;;0.00;0.00;;;;;27.02;41.58;101480.13;5032122;28;46201;-72
2023/08/09 04:04:59;;;;;;;;;1.00;1.00;;;;;26.83;41.45;101450.44;5032067;28;45305;-72
2023/08/09 04:07:24;;;;;;;;;0.67;0.67;;;;;27.12;41.40;101507.28;5032078;28;45316;-72
2023/08/09 04:09:49;;;;;;;;;0.33;0.00;;;;;27.12;41.54;101504.59;5032181;28;45220;-72
2023/08/09 04:12:15;;;;;;;;;2.00;0.00;;;;;27.13;41.17;101511.63;5030732;28;47342;-72
2023/08/09 04:14:40;;;;;;;;;0.33;0.00;;;;;27.05;40.80;101493.91;5031810;28;45326;-73
2023/08/09 04:17:06;;;;;;;;;0.67;0.67;;;;;27.12;40.78;101509.13;5032366;27;45430;-72
2023/08/09 04:19:31;;;;;;;;;0.67;0.67;;;;;27.06;41.36;101508.88;5031800;28;45324;-72
2023/08/09 04:21:57;;;;;;;;;0.00;0.00;;;;;26.83;41.35;101464.63;5031753;28;45682;-72
2023/08/09 04:24:22;;;;;;;;;0.00;0.00;;;;;27.03;40.95;101495.94;5031941;28;45319;-72
2023/08/09 04:26:48;;;;;;;;;0.00;0.00;;;;;27.03;41.08;101503.97;5031922;28;45258;-72
2023/08/09 04:29:13;;;;;;;;;0.33;0.00;;;;;27.10;41.01;101520.00;5031523;28;45379;-73
2023/08/09 04:31:38;;;;;;;;;1.00;1.00;;;;;26.94;41.32;101502.47;5031703;28;46517;-72
2023/08/09 04:34:04;;;;;;;;;1.00;1.00;;;;;26.93;41.35;101498.16;5033014;28;45486;-72
2023/08/09 04:36:31;;;;;;;;;0.33;0.33;;;;;26.88;41.04;101487.25;5035148;28;45453;-72
2023/08/09 04:38:59;;;;;;;;;0.00;0.00;;;;;27.09;41.14;101526.34;5034963;28;45396;-72
2023/08/09 04:41:24;;;;;;;;;0.00;0.00;;;;;27.09;41.27;101528.22;5034779;28;46087;-72
2023/08/09 04:43:50;;;;;;;;;1.33;1.33;;;;;27.05;41.75;101522.44;5034478;28;45262;-72
2023/08/09 04:46:16;;;;;;;;;0.00;0.00;;;;;27.06;41.63;101526.78;5034974;28;45332;-72
2023/08/09 04:48:42;;;;;;;;;0.00;0.00;;;;;26.81;41.44;101492.53;5034843;28;45360;-72
2023/08/09 04:51:08;;;;;;;;;0.00;0.00;;;;;27.00;41.12;101523.06;5034493;28;45903;-72
2023/08/09 04:53:34;;;;;;;;;0.00;0.00;;;;;27.11;41.43;101531.53;5034633;28;45422;-72
2023/08/09 04:55:59;;;;;;;;;0.00;0.00;;;;;27.03;40.94;101528.00;5035018;28;45411;-72
2023/08/09 04:58:25;;;;;;;;;1.00;1.00;;;;;27.12;41.50;101536.66;5034296;28;45502;-72
2023/08/09 05:00:50;;;;;;;;;0.67;0.67;;;;;27.10;41.21;101540.53;5034609;28;45399;-72
2023/08/09 05:03:15;;;;;;;;;0.00;0.00;;;;;27.11;41.05;101537.69;5034523;28;45556;-72
2023/08/09 05:05:41;;;;;;;;;0.00;0.00;;;;;27.09;41.55;101537.03;5104140;27;45364;-72
2023/08/09 05:08:06;;;;;;;;;0.00;0.00;;;;;27.02;41.08;101526.34;5034527;28;45305;-72
2023/08/09 05:10:32;;;;;;;;;0.00;0.00;;;;;27.05;40.94;101541.16;5034251;27;47211;-72
2023/08/09 05:12:57;;;;;;;;;0.67;0.67;;;;;27.10;41.12;101537.88;5034128;28;45374;-72
2023/08/09 05:15:22;;;;;;;;;0.67;0.00;;;;;27.10;41.01;101536.03;5034520;28;45633;-72
2023/08/09 05:17:48;;;;;;;;;1.67;0.33;;;;;27.10;41.42;101536.03;5034453;28;45456;-72
2023/08/09 05:20:15;;;;;;;;;0.00;0.00;;;;;27.07;41.12;101531.09;5034214;28;45951;-72
2023/08/09 05:22:41;;;;;;;;;0.00;0.00;;;;;27.02;40.95;101523.66;5034584;28;45402;-72
2023/08/09 05:25:07;;;;;;;;;0.00;0.00;;;;;27.09;41.49;101539.72;5034500;28;45295;-72
2023/08/09 05:27:32;;;;;;;;;1.00;0.00;;;;;27.05;41.49;101525.13;5033781;28;45367;-72
2023/08/09 05:29:57;;;;;;;;;0.00;0.00;;;;;27.01;41.41;101524.69;5034417;28;45316;-72
2023/08/09 05:32:23;;;;;;;;;0.00;0.00;;;;;27.10;41.55;101536.03;5034074;28;45380;-71
2023/08/09 05:34:48;;;;;;;;;0.00;0.00;;;;;27.06;40.98;101538.25;5034487;28;45313;-72
2023/08/09 05:37:13;;;;;;;;;0.00;0.00;;;;;27.09;41.04;101542.38;5034192;28;45411;-72
2023/08/09 05:39:39;;;;;;;;;0.33;0.33;;;;;27.02;41.07;101534.34;5034046;28;47181;-71
2023/08/09 05:42:04;;;;;;;;;1.00;1.00;;;;;27.06;41.02;101546.28;5033887;28;45409;-71
2023/08/09 05:44:30;;;;;;;;;0.00;0.00;;;;;27.08;41.41;101543.41;5033901;28;45389;-71
2023/08/09 05:46:56;;;;;;;;;0.67;0.67;;;;;27.10;41.03;101543.22;5034383;28;45353;-71
2023/08/09 05:49:21;;;;;;;;;0.00;0.00;;;;;27.06;41.65;101540.94;5032449;28;47183;-71
2023/08/09 05:51:47;;;;;;;;;0.33;0.33;;;;;27.10;41.23;101552.06;5033903;28;45402;-71
2023/08/09 05:54:12;;;;;;;;;0.00;0.00;;;;;27.10;41.64;101557.41;5034094;28;45302;-71
2023/08/09 05:56:38;;;;;;;;;0.00;0.00;;;;;26.89;41.13;101526.25;5033640;28;45335;-72
2023/08/09 05:59:04;;;;;;;;;0.00;0.00;;;;;27.03;41.63;101556.53;5033831;28;45361;-71
2023/08/09 06:01:29;;;;;;;;;0.00;0.00;;;;;27.06;41.68;101556.97;5033913;28;45318;-71
2023/08/09 06:03:55;;;;;;;;;0.00;0.00;;;;;27.07;41.65;101563.13;5033872;28;45310;-71
2023/08/09 06:06:22;;;;;;;;;0.00;0.00;;;;;27.13;41.41;101570.38;5034009;27;45275;-72
2023/08/09 06:08:48;;;;;;;;;0.00;0.00;;;;;27.14;40.92;101569.34;5033294;28;46567;-71
2023/08/09 06:11:13;;;;;;;;;0.00;0.00;;;;;27.00;41.60;101551.59;5033214;28;45334;-71
2023/08/09 06:13:39;;;;;;;;;0.67;0.00;;;;;27.06;41.54;101558.81;5033750;28;45350;-71
2023/08/09 06:16:04;;;;;;;;;0.00;0.00;;;;;27.06;41.10;101569.50;5033826;28;45480;-71
2023/08/09 06:18:30;;;;;;;;;1.00;0.67;;;;;27.04;41.01;101560.84;5033374;27;47191;-71
2023/08/09 06:20:55;;;;;;;;;0.00;0.00;;;;;27.07;41.73;101565.78;5033696;28;45416;-72
2023/08/09 06:23:20;;;;;;;;;0.00;0.00;;;;;27.16;41.46;101580.69;5033699;28;45384;-73
2023/08/09 06:25:47;;;;;;;;;0.00;0.00;;;;;27.05;41.57;101570.50;5033456;28;45374;-72
2023/08/09 06:28:13;;;;;;;;;0.00;0.00;;;;;27.17;40.95;101584.16;5033298;28;46991;-72
2023/08/09 06:30:39;;;;;;;;;0.00;0.00;;;;;27.13;41.61;101578.41;5033501;28;45381;-72
2023/08/09 06:33:05;;;;;;;;;0.00;0.00;;;;;27.09;41.64;101570.97;5033657;28;45373;-72
2023/08/09 06:35:31;;;;;;;;;0.00;0.00;;;;;27.05;40.93;101565.19;5033542;28;45329;-72
2023/08/09 06:37:56;;;;;;;;;0.00;0.00;;;;;27.21;41.45;101587.28;5033374;27;46250;-72
2023/08/09 06:40:22;;;;;;;;;0.67;0.33;;;;;27.12;41.49;101575.88;5033014;28;45280;-72
2023/08/09 06:42:47;;;;;;;;;0.00;0.00;;;;;27.22;40.88;101583.59;5033406;28;45290;-71
2023/08/09 06:45:13;;;;;;;;;1.00;1.00;;;;;27.22;41.48;101578.25;5033364;28;45454;-71
2023/08/09 06:47:38;;;;;;;;;0.00;0.00;;;;;27.00;41.03;101543.59;5032927;28;46253;-71
2023/08/09 06:50:07;;;;;;;;;0.00;0.00;;;;;27.16;40.74;101567.34;5033428;28;45277;-71
2023/08/09 06:52:37;;;;;;;;;0.00;0.00;;;;;27.31;40.78;101587.72;5033308;28;45342;-71
2023/08/09 06:55:07;;;;;;;;;0.00;0.00;;;;;27.30;41.26;101583.41;5032906;28;45476;-72
2023/08/09 06:57:33;;;;;;;;;0.00;0.00;;;;;27.31;40.90;101592.25;5031869;28;47018;-72
2023/08/09 06:59:59;;;;;;;;;0.00;0.00;;;;;27.34;41.10;101602.53;5033027;28;45486;-72
2023/08/09 07:02:26;;;;;;;;;0.00;0.00;;;;;27.34;41.05;101607.88;5102534;27;45356;-72
2023/08/09 07:04:53;;;;;;;;;0.00;0.00;;;;;27.29;41.32;101601.31;5033199;28;45502;-70
2023/08/09 07:07:20;;;;;;;;;2.00;0.33;;;;;27.32;40.66;101602.75;5032588;28;47157;-72
2023/08/09 07:09:45;;;;;;;;;0.00;0.00;;;;;27.35;40.76;101599.66;5032370;27;45430;-73
2023/08/09 07:12:11;;;;;;;;;0.00;0.00;;;;;27.29;40.74;101593.28;5033024;28;45370;-72
2023/08/09 07:14:36;;;;;;;;;0.00;0.00;;;;;27.00;40.68;101535.56;5033358;27;45240;-72
2023/08/09 07:17:02;;;;;;;;;0.33;0.33;;;;;27.32;41.22;101585.91;5032956;27;45276;-72
2023/08/09 07:19:28;;;;;;;;;0.00;0.00;;;;;27.43;40.39;101609.34;5032528;27;45500;-72
2023/08/09 07:21:53;;;;;;;;;0.00;0.00;;;;;27.23;41.03;101582.56;5032863;28;45412;-72
2023/08/09 07:24:18;;;;;;;;;0.00;0.00;;;;;27.46;40.50;101608.97;5032568;28;45394;-72
2023/08/09 07:26:44;;;;;;;;;0.00;0.00;;;;;26.53;41.10;101462.22;5032798;27;46049;-72
2023/08/09 07:29:09;;;;;;;;;0.00;0.00;;;;;27.50;40.43;101609.41;5032562;28;45301;-72
2023/08/09 07:31:35;;;;;;;;;0.00;0.00;;;;;27.42;40.50;101607.72;5032804;28;45292;-73
2023/08/09 07:34:01;;;;;;;;;0.00;0.00;;;;;27.37;40.95;101600.31;5032750;28;45464;-72
2023/08/09 07:36:26;;;;;;;;;0.00;0.00;;;;;27.39;40.58;101614.28;5032852;28;46273;-72
2023/08/09 07:38:52;;;;;;;;;0.00;0.00;;;;;27.44;40.86;101626.22;5032140;28;45524;-72
2023/08/09 07:41:17;;;;;;;;;0.00;0.00;;;;;27.53;40.73;101641.09;5032693;28;45347;-73
2023/08/09 07:43:43;;;;;;;;;0.33;0.33;;;;;27.50;41.03;101631.63;5032651;28;45346;-72
2023/08/09 07:46:08;;;;;;;;;0.67;0.67;;;;;27.48;40.34;101630.97;5032318;28;45547;-72
2023/08/09 07:48:34;;;;;;;;;1.00;1.00;;;;;27.44;40.44;101624.38;5032308;28;45437;-72
2023/08/09 07:51:00;;;;;;;;;0.00;0.00;;;;;27.41;40.98;101611.41;5032617;27;45457;-73
2023/08/09 07:53:26;;;;;;;;;0.00;0.00;;;;;27.49;40.62;101631.78;5031963;27;45422;-72
2023/08/09 07:55:52;;;;;;;;;1.00;1.00;;;;;27.50;41.22;101638.81;5032307;28;46158;-72
2023/08/09 07:58:17;;;;;;;;;0.00;0.00;;;;;27.45;41.25;101628.72;5032070;28;45469;-72
2023/08/09 08:00:42;;;;;;;;;0.00;0.00;;;;;27.47;40.98;101637.34;5032469;28;45719;-72
2023/08/09 08:03:09;;;;;;;;;0.00;0.00;;;;;27.47;41.13;101637.34;5101462;27;45451;-72
2023/08/09 08:05:34;;;;;;;;;0.00;0.00;;;;;27.39;40.50;101634.84;5031971;28;47104;-72
2023/08/09 08:08:00;;;;;;;;;0.00;0.00;;;;;27.47;40.85;101652.56;5031674;28;45370;-72
2023/08/09 08:10:26;;;;;;;;;0.00;0.00;;;;;27.42;40.94;101653.16;5035020;27;45413;-72
2023/08/09 08:12:51;;;;;;;;;0.00;0.00;;;;;27.46;40.59;101669.59;5017547;28;45469;-71
2023/08/09 08:15:18;;;;;;;;;0.00;0.00;;;;;27.46;41.16;101669.59;5035115;28;47400;-72
2023/08/09 08:17:46;;;;;;;;;0.00;0.00;;;;;27.44;40.83;101671.66;5034985;28;45470;-72
2023/08/09 08:20:15;;;;;;;;;0.00;0.00;;;;;27.39;40.83;101659.72;5035181;28;45360;-73
2023/08/09 08:22:46;;;;;;;;;0.00;0.00;;;;;27.42;41.23;101671.84;5034826;28;45455;-72
2023/08/09 08:25:12;;;;;;;;;0.67;0.67;;;;;27.28;41.21;101646.91;5034984;28;46224;-71
2023/08/09 08:27:42;;;;;;;;;0.00;0.00;;;;;26.92;40.66;101592.63;5034849;28;45615;-72
2023/08/09 08:30:08;;;;;;;;;0.00;0.00;;;;;27.37;40.89;101669.78;5035161;28;45307;-72
2023/08/09 08:32:35;;;;;;;;;1.00;1.00;;;;;27.41;40.69;101672.88;5035135;28;45258;-72
2023/08/09 08:35:02;;;;;;;;;0.00;0.00;;;;;27.39;41.08;101675.75;5034789;28;47098;-72
2023/08/09 08:37:28;;;;;;;;;0.00;0.00;;;;;27.31;40.75;101654.53;5034515;28;45307;-72
2023/08/09 08:39:53;;;;;;;;;0.00;0.00;;;;;27.40;40.90;101680.06;5035043;28;45441;-72
2023/08/09 08:42:18;;;;;;;;;2.33;0.00;;;;;27.29;41.41;101661.91;5034875;28;45453;-72
2023/08/09 08:44:44;;;;;;;;;1.00;0.00;;;;;26.99;40.56;101622.84;5016966;28;46521;-72
2023/08/09 08:47:10;;;;;;;;;0.00;0.00;;;;;27.41;40.98;101683.56;5016896;28;46402;-73
2023/08/09 08:49:41;;;;;;;;;0.00;0.00;;;;;27.39;40.77;101691.78;5034858;28;45310;-72
2023/08/09 08:52:07;;;;;;;;;0.00;0.00;;;;;27.27;40.71;101674.66;5034623;28;45473;-72
2023/08/09 08:54:34;;;;;;;;;1.00;1.00;;;;;27.24;40.91;101675.88;5034507;28;46755;-72
2023/08/09 08:57:00;;;;;;;;;0.00;0.00;;;;;27.17;40.57;101667.78;5034659;27;45476;-72
2023/08/09 08:59:25;;;;;;;;;0.00;0.00;;;;;27.26;41.02;101687.19;5104051;27;45205;-73
2023/08/09 09:01:51;;;;;;;;;0.33;0.33;;;;;27.38;40.93;101708.00;5034812;28;45280;-73
2023/08/09 09:04:17;;;;;;;;;0.00;0.00;;;;;27.03;40.82;101655.34;5016286;28;46502;-72
2023/08/09 09:06:42;;;;;;;;;0.00;0.00;;;;;27.25;41.32;101690.84;5103671;27;45431;-72
2023/08/09 09:09:15;;;;;;;;;0.00;0.00;;;;;27.37;41.41;101706.34;5034373;27;45272;-72
2023/08/09 09:11:43;;;;;;;;;0.00;0.00;;;;;27.34;40.98;101702.22;5034571;28;45557;-72
2023/08/09 09:14:12;;;;;;;;;0.00;0.00;;;;;27.36;40.91;101704.69;5034473;28;45357;-72
2023/08/09 09:16:38;;;;;;;;;0.00;0.00;;;;;27.34;41.08;101701.41;5034399;28;45477;-72
2023/08/09 09:19:04;;;;;;;;;0.00;0.00;;;;;27.35;40.91;101706.53;5032335;27;45354;-72
2023/08/09 09:21:34;;;;;;;;;0.00;0.00;;;;;27.16;41.00;101676.00;5034284;28;45502;-73
2023/08/09 09:24:07;;;;;;;;;0.00;0.00;;;;;27.37;40.98;101701.84;5034251;28;46968;-73
2023/08/09 09:26:34;;;;;;;;;0.00;0.00;;;;;27.33;41.27;101697.06;5026066;28;45360;-72
2023/08/09 09:28:59;;;;;;;;;0.00;0.00;;;;;27.38;40.77;101705.31;5034278;28;45320;-72
2023/08/09 09:31:35;;;;;;;;;0.00;0.00;;;;;27.37;40.86;101701.00;5034166;28;45369;-72
2023/08/09 09:34:00;;;;;;;;;0.67;0.67;;;;;27.24;40.89;101686.56;5033766;28;47267;-72
2023/08/09 09:36:26;;;;;;;;;0.00;0.00;;;;;27.36;40.94;101705.53;5034216;28;45386;-72
2023/08/09 09:38:56;;;;;;;;;3.00;0.00;;;;;27.37;41.41;101714.38;5034401;28;45326;-72
2023/08/09 09:41:21;;;;;;;;;0.33;0.33;;;;;26.90;40.66;101642.72;5034332;28;45533;-71
2023/08/09 09:43:50;;;;;;;;;0.00;0.00;;;;;27.24;41.31;101699.91;5034026;28;46305;-72
2023/08/09 09:46:24;;;;;;;;;1.00;1.00;;;;;27.37;41.06;101711.69;5033945;28;45363;-73
2023/08/09 09:49:00;;;;;;;;;0.00;0.00;;;;;27.31;41.55;101704.47;5033582;28;45330;-72
2023/08/09 09:51:26;;;;;;;;;0.00;0.00;;;;;27.21;41.38;101686.94;5016149;28;45348;-72
2023/08/09 09:53:52;;;;;;;;;0.67;0.67;;;;;27.29;40.73;101705.50;5033884;28;47106;-72
2023/08/09 09:56:17;;;;;;;;;0.00;0.00;;;;;27.40;40.63;101714.78;5033919;28;45341;-73
2023/08/09 09:58:43;;;;;;;;;0.00;0.00;;;;;27.40;41.08;101717.47;5034020;28;45651;-72
2023/08/09 10:01:12;;;;;;;;;0.00;0.00;;;;;27.15;41.21;101672.50;5034128;28;45534;-72
2023/08/09 10:03:42;;;;;;;;;0.00;0.00;;;;;27.36;40.82;101710.88;5033632;27;46381;-72
2023/08/09 10:06:14;;;;;;;;;1.00;1.00;;;;;27.34;41.28;101698.72;5016820;27;45295;-72
2023/08/09 10:08:41;;;;;;;;;0.67;0.67;;;;;27.39;41.09;101725.69;5033708;27;45535;-72
2023/08/09 10:11:09;;;;;;;;;1.00;0.00;;;;;27.43;41.13;101721.59;5033821;28;45494;-73
2023/08/09 10:13:35;;;;;;;;;0.00;0.00;;;;;27.42;40.80;101719.13;5033653;28;47303;-73
2023/08/09 10:16:05;;;;;;;;;0.33;0.33;;;;;27.29;41.42;101708.16;5033892;28;45433;-72
2023/08/09 10:18:42;;;;;;;;;1.33;0.33;;;;;27.37;40.72;101727.72;5033264;28;45455;-72
2023/08/09 10:21:09;;;;;;;;;2.00;1.00;;;;;27.41;40.72;101742.34;5033691;28;45290;-72
2023/08/09 10:23:35;;;;;;;;;0.00;0.00;;;;;27.25;41.07;101714.91;5033440;28;45376;-70
2023/08/09 10:26:00;;;;;;;;;0.00;0.00;;;;;27.42;41.30;101738.66;5033660;28;45469;-72
2023/08/09 10:29:01;;;;;;;;;0.00;0.00;;;;;27.38;41.42;101730.19;5134383;27;45385;-72
2023/08/09 10:31:53;;;;;;;;;0.00;0.00;;;;;27.43;41.24;101736.81;5113202;27;45337;-72
2023/08/09 10:34:20;;;;;;;;;0.00;0.00;;;;;27.42;41.01;101732.47;5113747;27;45502;-72
2023/08/09 10:36:53;;;;;;;;;1.00;1.00;;;;;27.43;41.42;101736.81;5113611;27;45583;-72
2023/08/09 10:39:20;;;;;;;;;0.00;0.00;;;;;27.42;41.46;101733.31;5113609;27;46146;-71
2023/08/09 10:42:20;;;;;;;;;2.00;1.00;;;;;27.42;40.79;101738.66;5113504;27;45337;-72
2023/08/09 10:44:50;;;;;;;;;0.00;0.00;;;;;27.39;40.97;101731.03;5030031;28;45981;-72
2023/08/09 10:47:18;;;;;;;;;0.33;0.33;;;;;27.42;41.25;101738.66;5029221;28;45473;-71
2023/08/09 10:49:49;;;;;;;;;0.00;0.00;;;;;27.41;41.47;101737.00;5029700;28;46602;-72
2023/08/09 10:52:32;;;;;;;;;0.00;0.00;;;;;27.24;40.77;101717.78;5029634;28;45564;-72
2023/08/09 10:55:19;;;;;;;;;2.00;0.00;;;;;27.40;40.91;101746.06;5029803;28;45500;-72
2023/08/09 10:57:49;;;;;;;;;0.00;0.00;;;;;27.27;41.39;101726.22;5029766;28;45368;-71
2023/08/09 11:00:15;;;;;;;;;0.00;0.00;;;;;27.36;41.11;101742.09;5029146;28;46125;-72
2023/08/09 11:02:51;;;;;;;;;0.00;0.00;;;;;27.38;41.17;101746.22;5029699;28;45281;-72
2023/08/09 11:05:17;;;;;;;;;1.00;0.00;;;;;27.34;41.04;101744.97;5029707;28;45499;-72
2023/08/09 11:07:47;;;;;;;;;0.00;0.00;;;;;27.39;41.40;101752.41;5029615;28;45534;-72
2023/08/09 11:10:13;;;;;;;;;0.00;0.00;;;;;27.40;40.79;101754.06;5029089;28;46067;-72
2023/08/09 11:12:42;;;;;;;;;0.00;0.00;;;;;27.40;40.80;101760.22;5029505;28;45401;-72
2023/08/09 11:15:08;;;;;;;;;0.00;0.00;;;;;27.35;41.55;101748.47;5029402;28;45499;-72
2023/08/09 11:17:35;;;;;;;;;0.00;0.00;;;;;27.16;40.79;101710.75;5029098;27;45435;-71
2023/08/09 11:20:00;;;;;;;;;0.00;0.00;;;;;27.34;40.91;101742.31;5092304;27;46087;-72
2023/08/09 11:22:26;;;;;;;;;3.00;0.00;;;;;27.34;41.17;101741.47;5092098;27;45376;-71